sensor_id;sensor_type;location;lat;lon;timestamp;pressure;altitude;pressure_sealevel;temperature
37536;BMP180;23379;51.554;6.736;2023-02-28T00:02:20;102480.00;;;1.00
37536;BMP180;23379;51.554;6.736;2023-02-28T00:04:45;102461.00;;;0.90
37536;BMP180;23379;51.554;6.736;2023-02-28T00:07:18;102498.00;;;0.80
37536;BMP180;23379;51.554;6.736;2023-02-28T00:09:43;102494.00;;;0.70
37536;BMP180;23379;51.554;6.736;2023-02-28T00:12:08;102472.00;;;0.50
37536;BMP180;23379;51.554;6.736;2023-02-28T00:14:36;102513.00;;;0.40
37536;BMP180;23379;51.554;6.736;2023-02-28T00:17:01;102494.00;;;0.50
37536;BMP180;23379;51.554;6.736;2023-02-28T00:19:26;102422.00;;;0.10
37536;BMP180;23379;51.554;6.736;2023-02-28T00:21:52;102452.00;;;0.20
37536;BMP180;23379;51.554;6.736;2023-02-28T00:24:17;102502.00;;;0.30
37536;BMP180;23379;51.554;6.736;2023-02-28T00:26:42;102492.00;;;0.20
37536;BMP180;23379;51.554;6.736;2023-02-28T00:29:08;102502.00;;;0.10
37536;BMP180;23379;51.554;6.736;2023-02-28T00:31:33;102441.00;;;0.20
37536;BMP180;23379;51.554;6.736;2023-02-28T00:33:58;102505.00;;;0.30
37536;BMP180;23379;51.554;6.736;2023-02-28T00:36:24;102501.00;;;0.10
37536;BMP180;23379;51.554;6.736;2023-02-28T00:38:49;102498.00;;;0.00
37536;BMP180;23379;51.554;6.736;2023-02-28T00:41:15;102529.00;;;0.30
37536;BMP180;23379;51.554;6.736;2023-02-28T00:43:40;102521.00;;;0.20
37536;BMP180;23379;51.554;6.736;2023-02-28T00:46:06;102517.00;;;0.00
37536;BMP180;23379;51.554;6.736;2023-02-28T00:48:32;102501.00;;;0.10
37536;BMP180;23379;51.554;6.736;2023-02-28T00:50:57;102487.00;;;0.20
37536;BMP180;23379;51.554;6.736;2023-02-28T00:53:23;102507.00;;;0.10
37536;BMP180;23379;51.554;6.736;2023-02-28T00:55:49;102452.00;;;0.00
37536;BMP180;23379;51.554;6.736;2023-02-28T00:58:15;102449.00;;;0.00
37536;BMP180;23379;51.554;6.736;2023-02-28T01:00:40;102526.00;;;-0.40
37536;BMP180;23379;51.554;6.736;2023-02-28T01:03:05;102498.00;;;0.00
37536;BMP180;23379;51.554;6.736;2023-02-28T01:05:31;102502.00;;;0.00
37536;BMP180;23379;51.554;6.736;2023-02-28T01:07:56;102475.00;;;0.10
37536;BMP180;23379;51.554;6.736;2023-02-28T01:10:21;102522.00;;;0.00
37536;BMP180;23379;51.554;6.736;2023-02-28T01:12:47;102487.00;;;-0.10
37536;BMP180;23379;51.554;6.736;2023-02-28T01:15:12;102523.00;;;0.00
37536;BMP180;23379;51.554;6.736;2023-02-28T01:17:37;102510.00;;;0.10
37536;BMP180;23379;51.554;6.736;2023-02-28T01:20:03;102520.00;;;0.10
37536;BMP180;23379;51.554;6.736;2023-02-28T01:22:29;102533.00;;;-0.10
37536;BMP180;23379;51.554;6.736;2023-02-28T01:24:54;102473.00;;;0.10
37536;BMP180;23379;51.554;6.736;2023-02-28T01:27:19;102499.00;;;0.00
37536;BMP180;23379;51.554;6.736;2023-02-28T01:29:45;102516.00;;;0.10
37536;BMP180;23379;51.554;6.736;2023-02-28T01:32:10;102490.00;;;0.30
37536;BMP180;23379;51.554;6.736;2023-02-28T01:34:36;102531.00;;;0.00
37536;BMP180;23379;51.554;6.736;2023-02-28T01:37:01;102460.00;;;-0.30
37536;BMP180;23379;51.554;6.736;2023-02-28T01:39:28;102503.00;;;-0.20
37536;BMP180;23379;51.554;6.736;2023-02-28T01:41:54;102500.00;;;0.00
37536;BMP180;23379;51.554;6.736;2023-02-28T01:47:25;102474.00;;;-0.10
37536;BMP180;23379;51.554;6.736;2023-02-28T01:49:52;102488.00;;;-0.30
37536;BMP180;23379;51.554;6.736;2023-02-28T01:52:18;102490.00;;;0.00
37536;BMP180;23379;51.554;6.736;2023-02-28T01:54:55;102520.00;;;0.00
37536;BMP180;23379;51.554;6.736;2023-02-28T01:57:32;102515.00;;;-0.10
37536;BMP180;23379;51.554;6.736;2023-02-28T02:00:15;102495.00;;;-0.40
37536;BMP180;23379;51.554;6.736;2023-02-28T02:02:43;102498.00;;;-0.30
37536;BMP180;23379;51.554;6.736;2023-02-28T02:05:13;102485.00;;;-0.40
37536;BMP180;23379;51.554;6.736;2023-02-28T02:07:40;102511.00;;;-0.20
37536;BMP180;23379;51.554;6.736;2023-02-28T02:10:15;102467.00;;;-0.30
37536;BMP180;23379;51.554;6.736;2023-02-28T02:15:16;102501.00;;;-0.30
37536;BMP180;23379;51.554;6.736;2023-02-28T02:17:48;102503.00;;;-0.20
37536;BMP180;23379;51.554;6.736;2023-02-28T02:23:23;102489.00;;;-0.30
37536;BMP180;23379;51.554;6.736;2023-02-28T02:34:20;102484.00;;;-0.30
37536;BMP180;23379;51.554;6.736;2023-02-28T02:37:36;102468.00;;;-0.40
37536;BMP180;23379;51.554;6.736;2023-02-28T02:40:02;102486.00;;;-0.50
37536;BMP180;23379;51.554;6.736;2023-02-28T02:45:12;102486.00;;;-0.60
37536;BMP180;23379;51.554;6.736;2023-02-28T02:47:39;102414.00;;;-0.60
37536;BMP180;23379;51.554;6.736;2023-02-28T02:50:08;102459.00;;;-0.60
37536;BMP180;23379;51.554;6.736;2023-02-28T02:52:41;102476.00;;;-0.90
37536;BMP180;23379;51.554;6.736;2023-02-28T02:55:08;102428.00;;;-0.80
37536;BMP180;23379;51.554;6.736;2023-02-28T02:57:44;102484.00;;;-0.80
37536;BMP180;23379;51.554;6.736;2023-02-28T03:00:10;102417.00;;;-0.80
37536;BMP180;23379;51.554;6.736;2023-02-28T03:02:38;102462.00;;;-0.80
37536;BMP180;23379;51.554;6.736;2023-02-28T03:05:09;102460.00;;;-0.60
37536;BMP180;23379;51.554;6.736;2023-02-28T03:07:37;102449.00;;;-0.70
37536;BMP180;23379;51.554;6.736;2023-02-28T03:10:02;102452.00;;;-0.70
37536;BMP180;23379;51.554;6.736;2023-02-28T03:12:41;102485.00;;;-0.80
37536;BMP180;23379;51.554;6.736;2023-02-28T03:15:26;102480.00;;;-1.00
37536;BMP180;23379;51.554;6.736;2023-02-28T03:18:02;102492.00;;;-0.90
37536;BMP180;23379;51.554;6.736;2023-02-28T03:25:56;102473.00;;;-1.00
37536;BMP180;23379;51.554;6.736;2023-02-28T03:28:42;102454.00;;;-1.10
37536;BMP180;23379;51.554;6.736;2023-02-28T03:34:08;102457.00;;;-1.50
37536;BMP180;23379;51.554;6.736;2023-02-28T03:36:39;102471.00;;;-1.20
37536;BMP180;23379;51.554;6.736;2023-02-28T03:39:16;102458.00;;;-1.20
37536;BMP180;23379;51.554;6.736;2023-02-28T03:41:49;102433.00;;;-1.40
37536;BMP180;23379;51.554;6.736;2023-02-28T03:44:21;102466.00;;;-1.30
37536;BMP180;23379;51.554;6.736;2023-02-28T03:47:00;102470.00;;;-1.50
37536;BMP180;23379;51.554;6.736;2023-02-28T03:49:35;102492.00;;;-1.40
37536;BMP180;23379;51.554;6.736;2023-02-28T03:52:04;102490.00;;;-1.40
37536;BMP180;23379;51.554;6.736;2023-02-28T03:54:35;102489.00;;;-1.40
37536;BMP180;23379;51.554;6.736;2023-02-28T03:57:08;102508.00;;;-1.50
37536;BMP180;23379;51.554;6.736;2023-02-28T03:59:45;102463.00;;;-1.30
37536;BMP180;23379;51.554;6.736;2023-02-28T04:02:12;102468.00;;;-1.40
37536;BMP180;23379;51.554;6.736;2023-02-28T04:04:38;102465.00;;;-1.30
37536;BMP180;23379;51.554;6.736;2023-02-28T04:07:08;102502.00;;;-1.10
37536;BMP180;23379;51.554;6.736;2023-02-28T04:09:34;102488.00;;;-1.20
37536;BMP180;23379;51.554;6.736;2023-02-28T04:12:00;102496.00;;;-1.30
37536;BMP180;23379;51.554;6.736;2023-02-28T04:14:25;102400.00;;;-1.40
37536;BMP180;23379;51.554;6.736;2023-02-28T04:16:51;102488.00;;;-1.20
37536;BMP180;23379;51.554;6.736;2023-02-28T04:19:18;102458.00;;;-1.20
37536;BMP180;23379;51.554;6.736;2023-02-28T04:21:46;102496.00;;;-1.40
37536;BMP180;23379;51.554;6.736;2023-02-28T04:24:14;102445.00;;;-1.50
37536;BMP180;23379;51.554;6.736;2023-02-28T04:26:41;102476.00;;;-1.70
37536;BMP180;23379;51.554;6.736;2023-02-28T04:29:08;102477.00;;;-1.70
37536;BMP180;23379;51.554;6.736;2023-02-28T04:31:34;102465.00;;;-1.50
37536;BMP180;23379;51.554;6.736;2023-02-28T04:34:00;102467.00;;;-1.70
37536;BMP180;23379;51.554;6.736;2023-02-28T04:36:26;102449.00;;;-1.50
37536;BMP180;23379;51.554;6.736;2023-02-28T04:38:51;102500.00;;;-1.50
37536;BMP180;23379;51.554;6.736;2023-02-28T04:41:18;102407.00;;;-1.60
37536;BMP180;23379;51.554;6.736;2023-02-28T04:43:44;102457.00;;;-1.50
37536;BMP180;23379;51.554;6.736;2023-02-28T04:46:10;102510.00;;;-1.50
37536;BMP180;23379;51.554;6.736;2023-02-28T04:48:37;102511.00;;;-1.40
37536;BMP180;23379;51.554;6.736;2023-02-28T04:51:09;102481.00;;;-1.40
37536;BMP180;23379;51.554;6.736;2023-02-28T04:53:36;102505.00;;;-1.50
37536;BMP180;23379;51.554;6.736;2023-02-28T04:56:02;102482.00;;;-1.70
37536;BMP180;23379;51.554;6.736;2023-02-28T04:58:28;102495.00;;;-1.60
37536;BMP180;23379;51.554;6.736;2023-02-28T05:01:02;102416.00;;;-1.80
37536;BMP180;23379;51.554;6.736;2023-02-28T05:03:27;102494.00;;;-1.60
37536;BMP180;23379;51.554;6.736;2023-02-28T05:05:53;102504.00;;;-1.50
37536;BMP180;23379;51.554;6.736;2023-02-28T05:08:18;102501.00;;;-1.50
37536;BMP180;23379;51.554;6.736;2023-02-28T05:10:43;102439.00;;;-1.60
37536;BMP180;23379;51.554;6.736;2023-02-28T05:13:12;102462.00;;;-1.50
37536;BMP180;23379;51.554;6.736;2023-02-28T05:15:37;102507.00;;;-1.50
37536;BMP180;23379;51.554;6.736;2023-02-28T05:18:03;102403.00;;;-1.60
37536;BMP180;23379;51.554;6.736;2023-02-28T05:20:28;102426.00;;;-1.60
37536;BMP180;23379;51.554;6.736;2023-02-28T05:22:53;102515.00;;;-1.70
37536;BMP180;23379;51.554;6.736;2023-02-28T05:25:20;102422.00;;;-1.60
37536;BMP180;23379;51.554;6.736;2023-02-28T05:27:49;102509.00;;;-1.80
37536;BMP180;23379;51.554;6.736;2023-02-28T05:30:14;102523.00;;;-1.90
37536;BMP180;23379;51.554;6.736;2023-02-28T05:32:41;102513.00;;;-2.10
37536;BMP180;23379;51.554;6.736;2023-02-28T05:35:12;102501.00;;;-2.20
37536;BMP180;23379;51.554;6.736;2023-02-28T05:37:38;102447.00;;;-1.80
37536;BMP180;23379;51.554;6.736;2023-02-28T05:40:06;102474.00;;;-1.90
37536;BMP180;23379;51.554;6.736;2023-02-28T05:42:32;102532.00;;;-1.80
37536;BMP180;23379;51.554;6.736;2023-02-28T05:44:58;102492.00;;;-1.80
37536;BMP180;23379;51.554;6.736;2023-02-28T05:47:24;102531.00;;;-1.80
37536;BMP180;23379;51.554;6.736;2023-02-28T05:49:49;102498.00;;;-1.70
37536;BMP180;23379;51.554;6.736;2023-02-28T05:52:14;102482.00;;;-1.80
37536;BMP180;23379;51.554;6.736;2023-02-28T05:54:40;102507.00;;;-1.60
37536;BMP180;23379;51.554;6.736;2023-02-28T05:57:06;102524.00;;;-1.70
37536;BMP180;23379;51.554;6.736;2023-02-28T05:59:32;102509.00;;;-1.80
37536;BMP180;23379;51.554;6.736;2023-02-28T06:01:57;102542.00;;;-1.80
37536;BMP180;23379;51.554;6.736;2023-02-28T06:04:22;102539.00;;;-1.70
37536;BMP180;23379;51.554;6.736;2023-02-28T06:06:48;102478.00;;;-1.80
37536;BMP180;23379;51.554;6.736;2023-02-28T06:09:14;102515.00;;;-2.00
37536;BMP180;23379;51.554;6.736;2023-02-28T06:11:40;102545.00;;;-1.80
37536;BMP180;23379;51.554;6.736;2023-02-28T06:14:07;102546.00;;;-1.80
37536;BMP180;23379;51.554;6.736;2023-02-28T06:16:37;102546.00;;;-1.80
37536;BMP180;23379;51.554;6.736;2023-02-28T06:19:03;102548.00;;;-1.60
37536;BMP180;23379;51.554;6.736;2023-02-28T06:21:29;102511.00;;;-1.50
37536;BMP180;23379;51.554;6.736;2023-02-28T06:23:55;102556.00;;;-1.50
37536;BMP180;23379;51.554;6.736;2023-02-28T06:26:21;102545.00;;;-1.70
37536;BMP180;23379;51.554;6.736;2023-02-28T06:28:47;102526.00;;;-1.80
37536;BMP180;23379;51.554;6.736;2023-02-28T06:31:15;102515.00;;;-1.70
37536;BMP180;23379;51.554;6.736;2023-02-28T06:33:41;102557.00;;;-1.70
37536;BMP180;23379;51.554;6.736;2023-02-28T06:36:08;102526.00;;;-2.00
37536;BMP180;23379;51.554;6.736;2023-02-28T06:38:34;102542.00;;;-1.70
37536;BMP180;23379;51.554;6.736;2023-02-28T06:41:00;102483.00;;;-1.80
37536;BMP180;23379;51.554;6.736;2023-02-28T06:43:29;102476.00;;;-1.70
37536;BMP180;23379;51.554;6.736;2023-02-28T06:45:56;102565.00;;;-1.60
37536;BMP180;23379;51.554;6.736;2023-02-28T06:48:23;102573.00;;;-1.50
37536;BMP180;23379;51.554;6.736;2023-02-28T06:50:48;102576.00;;;-1.20
37536;BMP180;23379;51.554;6.736;2023-02-28T06:53:13;102546.00;;;-1.20
37536;BMP180;23379;51.554;6.736;2023-02-28T06:55:40;102517.00;;;-1.20
37536;BMP180;23379;51.554;6.736;2023-02-28T06:58:06;102503.00;;;-1.20
37536;BMP180;23379;51.554;6.736;2023-02-28T07:00:43;102446.00;;;-1.30
37536;BMP180;23379;51.554;6.736;2023-02-28T07:03:10;102506.00;;;-1.40
37536;BMP180;23379;51.554;6.736;2023-02-28T07:05:36;102561.00;;;-1.40
37536;BMP180;23379;51.554;6.736;2023-02-28T07:08:02;102548.00;;;-1.20
37536;BMP180;23379;51.554;6.736;2023-02-28T07:10:28;102552.00;;;-1.10
37536;BMP180;23379;51.554;6.736;2023-02-28T07:12:53;102529.00;;;-0.90
37536;BMP180;23379;51.554;6.736;2023-02-28T07:15:19;102554.00;;;-0.80
37536;BMP180;23379;51.554;6.736;2023-02-28T07:17:44;102589.00;;;-0.50
37536;BMP180;23379;51.554;6.736;2023-02-28T07:20:10;102535.00;;;-0.50
37536;BMP180;23379;51.554;6.736;2023-02-28T07:22:35;102552.00;;;-0.30
37536;BMP180;23379;51.554;6.736;2023-02-28T07:25:01;102492.00;;;-0.10
37536;BMP180;23379;51.554;6.736;2023-02-28T07:27:26;102564.00;;;-0.10
37536;BMP180;23379;51.554;6.736;2023-02-28T07:29:52;102591.00;;;0.10
37536;BMP180;23379;51.554;6.736;2023-02-28T07:32:19;102577.00;;;0.00
37536;BMP180;23379;51.554;6.736;2023-02-28T07:34:45;102588.00;;;0.30
37536;BMP180;23379;51.554;6.736;2023-02-28T07:37:10;102608.00;;;0.40
37536;BMP180;23379;51.554;6.736;2023-02-28T07:39:35;102567.00;;;0.40
37536;BMP180;23379;51.554;6.736;2023-02-28T07:42:04;102586.00;;;0.50
37536;BMP180;23379;51.554;6.736;2023-02-28T07:44:30;102587.00;;;0.80
37536;BMP180;23379;51.554;6.736;2023-02-28T07:46:55;102561.00;;;0.70
37536;BMP180;23379;51.554;6.736;2023-02-28T07:49:22;102575.00;;;0.90
37536;BMP180;23379;51.554;6.736;2023-02-28T07:51:47;102597.00;;;0.90
37536;BMP180;23379;51.554;6.736;2023-02-28T07:54:12;102547.00;;;1.10
37536;BMP180;23379;51.554;6.736;2023-02-28T07:56:38;102536.00;;;1.30
37536;BMP180;23379;51.554;6.736;2023-02-28T07:59:03;102569.00;;;1.50
37536;BMP180;23379;51.554;6.736;2023-02-28T08:01:29;102575.00;;;1.50
37536;BMP180;23379;51.554;6.736;2023-02-28T08:03:54;102572.00;;;1.70
37536;BMP180;23379;51.554;6.736;2023-02-28T08:06:23;102602.00;;;1.70
37536;BMP180;23379;51.554;6.736;2023-02-28T08:08:49;102601.00;;;1.80
37536;BMP180;23379;51.554;6.736;2023-02-28T08:11:16;102586.00;;;3.00
37536;BMP180;23379;51.554;6.736;2023-02-28T08:13:42;102601.00;;;4.60
37536;BMP180;23379;51.554;6.736;2023-02-28T08:16:09;102609.00;;;6.50
37536;BMP180;23379;51.554;6.736;2023-02-28T08:18:35;102554.00;;;8.30
37536;BMP180;23379;51.554;6.736;2023-02-28T08:21:06;102609.00;;;9.70
37536;BMP180;23379;51.554;6.736;2023-02-28T08:23:31;102595.00;;;9.80
37536;BMP180;23379;51.554;6.736;2023-02-28T08:25:58;102595.00;;;9.70
37536;BMP180;23379;51.554;6.736;2023-02-28T08:28:24;102580.00;;;10.30
37536;BMP180;23379;51.554;6.736;2023-02-28T08:30:49;102568.00;;;10.20
37536;BMP180;23379;51.554;6.736;2023-02-28T08:33:15;102597.00;;;11.20
37536;BMP180;23379;51.554;6.736;2023-02-28T08:35:40;102590.00;;;10.80
37536;BMP180;23379;51.554;6.736;2023-02-28T08:38:05;102588.00;;;11.40
37536;BMP180;23379;51.554;6.736;2023-02-28T08:40:31;102593.00;;;12.20
37536;BMP180;23379;51.554;6.736;2023-02-28T08:42:56;102584.00;;;11.50
37536;BMP180;23379;51.554;6.736;2023-02-28T08:45:21;102546.00;;;11.70
37536;BMP180;23379;51.554;6.736;2023-02-28T08:47:47;102578.00;;;13.40
37536;BMP180;23379;51.554;6.736;2023-02-28T08:50:12;102592.00;;;12.20
37536;BMP180;23379;51.554;6.736;2023-02-28T08:52:42;102522.00;;;11.60
37536;BMP180;23379;51.554;6.736;2023-02-28T08:55:07;102580.00;;;11.90
37536;BMP180;23379;51.554;6.736;2023-02-28T08:57:34;102598.00;;;12.40
37536;BMP180;23379;51.554;6.736;2023-02-28T09:00:00;102593.00;;;13.10
37536;BMP180;23379;51.554;6.736;2023-02-28T09:02:26;102557.00;;;12.10
37536;BMP180;23379;51.554;6.736;2023-02-28T09:04:52;102595.00;;;12.20
37536;BMP180;23379;51.554;6.736;2023-02-28T09:07:17;102569.00;;;13.70
37536;BMP180;23379;51.554;6.736;2023-02-28T09:09:42;102544.00;;;13.50
37536;BMP180;23379;51.554;6.736;2023-02-28T09:12:26;102547.00;;;14.20
37536;BMP180;23379;51.554;6.736;2023-02-28T09:14:52;102590.00;;;14.50
37536;BMP180;23379;51.554;6.736;2023-02-28T09:17:18;102560.00;;;13.70
37536;BMP180;23379;51.554;6.736;2023-02-28T09:19:44;102542.00;;;13.10
37536;BMP180;23379;51.554;6.736;2023-02-28T09:22:10;102555.00;;;11.60
37536;BMP180;23379;51.554;6.736;2023-02-28T09:24:37;102558.00;;;12.10
37536;BMP180;23379;51.554;6.736;2023-02-28T09:27:02;102580.00;;;12.90
37536;BMP180;23379;51.554;6.736;2023-02-28T09:29:28;102578.00;;;12.00
37536;BMP180;23379;51.554;6.736;2023-02-28T09:31:53;102565.00;;;11.80
37536;BMP180;23379;51.554;6.736;2023-02-28T09:34:18;102577.00;;;12.10
37536;BMP180;23379;51.554;6.736;2023-02-28T09:36:45;102553.00;;;12.30
37536;BMP180;23379;51.554;6.736;2023-02-28T09:39:11;102550.00;;;11.60
37536;BMP180;23379;51.554;6.736;2023-02-28T09:41:40;102567.00;;;12.00
37536;BMP180;23379;51.554;6.736;2023-02-28T09:44:19;102572.00;;;12.70
37536;BMP180;23379;51.554;6.736;2023-02-28T09:46:49;102569.00;;;12.30
37536;BMP180;23379;51.554;6.736;2023-02-28T09:49:20;102572.00;;;11.00
37536;BMP180;23379;51.554;6.736;2023-02-28T09:52:25;102527.00;;;9.70
37536;BMP180;23379;51.554;6.736;2023-02-28T09:54:53;102571.00;;;9.70
37536;BMP180;23379;51.554;6.736;2023-02-28T10:00:13;102588.00;;;10.90
37536;BMP180;23379;51.554;6.736;2023-02-28T10:02:57;102583.00;;;12.60
37536;BMP180;23379;51.554;6.736;2023-02-28T10:05:28;102581.00;;;11.50
37536;BMP180;23379;51.554;6.736;2023-02-28T10:08:15;102573.00;;;12.40
37536;BMP180;23379;51.554;6.736;2023-02-28T10:10:47;102549.00;;;12.20
37536;BMP180;23379;51.554;6.736;2023-02-28T10:13:26;102564.00;;;9.70
37536;BMP180;23379;51.554;6.736;2023-02-28T10:16:00;102550.00;;;11.10
37536;BMP180;23379;51.554;6.736;2023-02-28T10:18:48;102578.00;;;12.10
37536;BMP180;23379;51.554;6.736;2023-02-28T10:21:26;102560.00;;;14.00
37536;BMP180;23379;51.554;6.736;2023-02-28T10:24:01;102546.00;;;12.50
37536;BMP180;23379;51.554;6.736;2023-02-28T10:26:28;102553.00;;;9.40
37536;BMP180;23379;51.554;6.736;2023-02-28T10:28:55;102564.00;;;10.80
37536;BMP180;23379;51.554;6.736;2023-02-28T10:31:20;102563.00;;;12.30
37536;BMP180;23379;51.554;6.736;2023-02-28T10:33:46;102551.00;;;14.20
37536;BMP180;23379;51.554;6.736;2023-02-28T10:36:15;102532.00;;;13.80
37536;BMP180;23379;51.554;6.736;2023-02-28T10:38:42;102564.00;;;12.50
37536;BMP180;23379;51.554;6.736;2023-02-28T10:41:10;102487.00;;;10.60
37536;BMP180;23379;51.554;6.736;2023-02-28T10:43:37;102558.00;;;10.10
37536;BMP180;23379;51.554;6.736;2023-02-28T10:46:11;102560.00;;;9.70
37536;BMP180;23379;51.554;6.736;2023-02-28T10:48:41;102546.00;;;12.70
37536;BMP180;23379;51.554;6.736;2023-02-28T10:51:14;102555.00;;;10.80
37536;BMP180;23379;51.554;6.736;2023-02-28T11:01:22;102532.00;;;11.80
37536;BMP180;23379;51.554;6.736;2023-02-28T11:03:49;102551.00;;;11.30
37536;BMP180;23379;51.554;6.736;2023-02-28T11:06:16;102547.00;;;9.20
37536;BMP180;23379;51.554;6.736;2023-02-28T11:08:53;102535.00;;;8.80
37536;BMP180;23379;51.554;6.736;2023-02-28T11:11:21;102555.00;;;7.00
37536;BMP180;23379;51.554;6.736;2023-02-28T11:13:51;102564.00;;;7.80
37536;BMP180;23379;51.554;6.736;2023-02-28T11:16:17;102530.00;;;7.80
37536;BMP180;23379;51.554;6.736;2023-02-28T11:18:50;102555.00;;;8.60
37536;BMP180;23379;51.554;6.736;2023-02-28T11:21:28;102534.00;;;8.30
37536;BMP180;23379;51.554;6.736;2023-02-28T11:24:01;102557.00;;;10.40
37536;BMP180;23379;51.554;6.736;2023-02-28T11:26:46;102564.00;;;9.40
37536;BMP180;23379;51.554;6.736;2023-02-28T11:29:31;102556.00;;;8.40
37536;BMP180;23379;51.554;6.736;2023-02-28T11:34:42;102552.00;;;10.60
37536;BMP180;23379;51.554;6.736;2023-02-28T11:37:17;102563.00;;;13.10
37536;BMP180;23379;51.554;6.736;2023-02-28T11:39:44;102548.00;;;10.30
37536;BMP180;23379;51.554;6.736;2023-02-28T11:42:23;102550.00;;;11.50
37536;BMP180;23379;51.554;6.736;2023-02-28T11:50:38;102535.00;;;12.30
37536;BMP180;23379;51.554;6.736;2023-02-28T11:55:49;102534.00;;;12.80
37536;BMP180;23379;51.554;6.736;2023-02-28T12:06:50;102521.00;;;13.10
37536;BMP180;23379;51.554;6.736;2023-02-28T12:15:05;102507.00;;;11.80
37536;BMP180;23379;51.554;6.736;2023-02-28T12:17:48;102501.00;;;13.40
37536;BMP180;23379;51.554;6.736;2023-02-28T12:20:45;102510.00;;;13.30
37536;BMP180;23379;51.554;6.736;2023-02-28T12:28:28;102482.00;;;11.90
37536;BMP180;23379;51.554;6.736;2023-02-28T12:31:11;102487.00;;;9.30
37536;BMP180;23379;51.554;6.736;2023-02-28T12:33:43;102482.00;;;12.00
37536;BMP180;23379;51.554;6.736;2023-02-28T12:36:12;102493.00;;;12.90
37536;BMP180;23379;51.554;6.736;2023-02-28T12:38:56;102485.00;;;12.90
37536;BMP180;23379;51.554;6.736;2023-02-28T12:41:36;102470.00;;;14.20
37536;BMP180;23379;51.554;6.736;2023-02-28T12:44:07;102435.00;;;10.50
37536;BMP180;23379;51.554;6.736;2023-02-28T12:46:41;102460.00;;;13.60
37536;BMP180;23379;51.554;6.736;2023-02-28T12:49:12;102456.00;;;12.30
37536;BMP180;23379;51.554;6.736;2023-02-28T12:51:39;102444.00;;;13.70
37536;BMP180;23379;51.554;6.736;2023-02-28T12:54:29;102469.00;;;12.90
37536;BMP180;23379;51.554;6.736;2023-02-28T12:59:50;102465.00;;;13.40
37536;BMP180;23379;51.554;6.736;2023-02-28T13:05:39;102454.00;;;11.20
37536;BMP180;23379;51.554;6.736;2023-02-28T13:10:57;102440.00;;;13.70
37536;BMP180;23379;51.554;6.736;2023-02-28T13:13:25;102430.00;;;13.60
37536;BMP180;23379;51.554;6.736;2023-02-28T13:16:09;102458.00;;;14.30
37536;BMP180;23379;51.554;6.736;2023-02-28T13:18:46;102462.00;;;14.20
37536;BMP180;23379;51.554;6.736;2023-02-28T13:21:30;102439.00;;;13.40
37536;BMP180;23379;51.554;6.736;2023-02-28T13:23:59;102409.00;;;12.20
37536;BMP180;23379;51.554;6.736;2023-02-28T13:29:24;102439.00;;;10.80
37536;BMP180;23379;51.554;6.736;2023-02-28T13:39:49;102449.00;;;13.00
37536;BMP180;23379;51.554;6.736;2023-02-28T13:55:46;102446.00;;;12.10
37536;BMP180;23379;51.554;6.736;2023-02-28T13:58:38;102443.00;;;10.80
37536;BMP180;23379;51.554;6.736;2023-02-28T14:09:00;102450.00;;;11.00
37536;BMP180;23379;51.554;6.736;2023-02-28T14:13:59;102438.00;;;9.70
37536;BMP180;23379;51.554;6.736;2023-02-28T14:16:26;102433.00;;;9.30
37536;BMP180;23379;51.554;6.736;2023-02-28T14:19:03;102421.00;;;10.90
37536;BMP180;23379;51.554;6.736;2023-02-28T14:21:33;102435.00;;;12.80
37536;BMP180;23379;51.554;6.736;2023-02-28T14:24:23;102450.00;;;12.60
37536;BMP180;23379;51.554;6.736;2023-02-28T14:27:03;102443.00;;;11.30
37536;BMP180;23379;51.554;6.736;2023-02-28T14:32:31;102448.00;;;12.30
37536;BMP180;23379;51.554;6.736;2023-02-28T14:37:51;102448.00;;;12.60
37536;BMP180;23379;51.554;6.736;2023-02-28T14:40:25;102440.00;;;13.30
37536;BMP180;23379;51.554;6.736;2023-02-28T14:42:58;102438.00;;;11.30
37536;BMP180;23379;51.554;6.736;2023-02-28T14:45:25;102422.00;;;10.50
37536;BMP180;23379;51.554;6.736;2023-02-28T14:47:52;102425.00;;;8.90
37536;BMP180;23379;51.554;6.736;2023-02-28T14:50:24;102421.00;;;7.90
37536;BMP180;23379;51.554;6.736;2023-02-28T14:52:52;102434.00;;;7.20
37536;BMP180;23379;51.554;6.736;2023-02-28T14:55:19;102419.00;;;6.50
37536;BMP180;23379;51.554;6.736;2023-02-28T14:57:55;102416.00;;;6.00
37536;BMP180;23379;51.554;6.736;2023-02-28T15:00:22;102425.00;;;6.30
37536;BMP180;23379;51.554;6.736;2023-02-28T15:02:48;102429.00;;;6.30
37536;BMP180;23379;51.554;6.736;2023-02-28T15:07:43;102412.00;;;6.50
37536;BMP180;23379;51.554;6.736;2023-02-28T15:10:27;102433.00;;;6.30
37536;BMP180;23379;51.554;6.736;2023-02-28T15:13:05;102424.00;;;6.20
37536;BMP180;23379;51.554;6.736;2023-02-28T15:18:01;102434.00;;;6.40
37536;BMP180;23379;51.554;6.736;2023-02-28T15:20:28;102428.00;;;6.20
37536;BMP180;23379;51.554;6.736;2023-02-28T15:22:54;102415.00;;;6.00
37536;BMP180;23379;51.554;6.736;2023-02-28T15:25:22;102417.00;;;6.10
37536;BMP180;23379;51.554;6.736;2023-02-28T15:27:50;102406.00;;;6.00
37536;BMP180;23379;51.554;6.736;2023-02-28T15:30:24;102432.00;;;6.10
37536;BMP180;23379;51.554;6.736;2023-02-28T15:33:20;102421.00;;;5.80
37536;BMP180;23379;51.554;6.736;2023-02-28T15:35:46;102416.00;;;5.70
37536;BMP180;23379;51.554;6.736;2023-02-28T15:38:25;102418.00;;;5.80
37536;BMP180;23379;51.554;6.736;2023-02-28T15:40:56;102419.00;;;5.80
37536;BMP180;23379;51.554;6.736;2023-02-28T15:43:27;102420.00;;;5.80
37536;BMP180;23379;51.554;6.736;2023-02-28T15:46:07;102409.00;;;5.90
37536;BMP180;23379;51.554;6.736;2023-02-28T15:48:37;102416.00;;;5.80
37536;BMP180;23379;51.554;6.736;2023-02-28T15:51:07;102420.00;;;5.70
37536;BMP180;23379;51.554;6.736;2023-02-28T15:53:47;102416.00;;;5.90
37536;BMP180;23379;51.554;6.736;2023-02-28T15:56:22;102420.00;;;5.90
37536;BMP180;23379;51.554;6.736;2023-02-28T15:58:48;102423.00;;;5.80
37536;BMP180;23379;51.554;6.736;2023-02-28T16:01:19;102415.00;;;5.70
37536;BMP180;23379;51.554;6.736;2023-02-28T16:03:48;102423.00;;;5.60
37536;BMP180;23379;51.554;6.736;2023-02-28T16:06:26;102424.00;;;5.60
37536;BMP180;23379;51.554;6.736;2023-02-28T16:08:54;102421.00;;;5.50
37536;BMP180;23379;51.554;6.736;2023-02-28T16:11:20;102409.00;;;5.40
37536;BMP180;23379;51.554;6.736;2023-02-28T16:13:46;102403.00;;;5.60
37536;BMP180;23379;51.554;6.736;2023-02-28T16:16:17;102403.00;;;5.70
37536;BMP180;23379;51.554;6.736;2023-02-28T16:18:42;102405.00;;;5.60